Time;durP1;ratioP1;P1;durP2;ratioP2;P2;SDS_P1;SDS_P2;PMS_P1;PMS_P2;Temp;Humidity;BMP_temperature;BMP_pressure;BME280_temperature;BME280_humidity;BME280_pressure;Samples;Min_cycle;Max_cycle;Signal;HPM_P1;HPM_P2
2022/12/01 00:01:33;;;;;;;51.50;20.35;;;;;;;5.48;64.11;99668.41;5166947;28;20131;-74
2022/12/01 00:04:24;;;;;;;47.95;19.08;;;;;;;5.41;64.60;99701.31;5168097;28;20191;-75
2022/12/01 00:07:15;;;;;;;51.72;19.10;;;;;;;5.48;63.23;99680.72;5167295;28;20056;-75
2022/12/01 00:13:15;;;;;;;49.58;19.92;;;;;;;5.40;64.03;99676.78;5156601;28;20416;-75
2022/12/01 00:16:14;;;;;;;50.45;19.58;;;;;;;5.47;64.56;99695.66;5155573;28;20139;-74
2022/12/01 00:19:05;;;;;;;47.17;18.92;;;;;;;4.91;65.32;99705.19;5183075;28;20073;-74
2022/12/01 00:21:56;;;;;;;48.28;19.27;;;;;;;5.25;65.05;99700.53;5152411;28;20492;-75
2022/12/01 00:24:46;;;;;;;50.40;19.70;;;;;;;5.60;64.33;99696.59;5166335;28;20085;-74
2022/12/01 00:27:36;;;;;;;49.65;18.65;;;;;;;5.08;66.35;99699.78;5163730;28;20046;-75
2022/12/01 00:30:27;;;;;;;43.67;17.80;;;;;;;5.26;65.05;99699.59;5175813;28;20052;-75
2022/12/01 00:33:17;;;;;;;46.17;18.38;;;;;;;5.55;63.83;99693.41;5176572;28;20046;-75
2022/12/01 00:36:07;;;;;;;45.17;18.25;;;;;;;5.39;63.66;99700.53;5166232;28;20058;-74
2022/12/01 00:38:58;;;;;;;44.08;17.55;;;;;;;5.49;64.65;99698.19;5157003;28;20128;-75
2022/12/01 00:41:48;;;;;;;43.60;17.70;;;;;;;5.34;63.99;99700.00;5139095;28;20807;-74
2022/12/01 00:44:39;;;;;;;47.15;18.75;;;;;;;5.30;64.45;99695.88;5171218;28;20151;-74
2022/12/01 00:47:29;;;;;;;42.63;18.33;;;;;;;5.50;63.93;99695.47;5157866;28;20057;-74
2022/12/01 00:50:19;;;;;;;44.92;18.05;;;;;;;5.54;63.68;99699.59;5169811;28;20057;-74
2022/12/01 00:53:09;;;;;;;46.13;18.38;;;;;;;5.75;64.38;99707.94;5174747;28;20046;-75
2022/12/01 00:55:59;;;;;;;44.03;18.52;;;;;;;5.44;63.52;99708.16;5170326;28;20551;-74
2022/12/01 00:58:50;;;;;;;47.75;18.50;;;;;;;5.74;63.20;99705.41;5170522;28;20057;-75
2022/12/01 01:01:40;;;;;;;48.25;19.35;;;;;;;5.45;62.98;99704.59;5185763;28;20050;-74
2022/12/01 01:04:32;;;;;;;49.63;20.60;;;;;;;5.26;63.08;99710.94;5175230;28;20494;-75
2022/12/01 01:07:29;;;;;;;46.22;18.58;;;;;;;5.09;63.69;99701.44;5155614;28;20132;-74
2022/12/01 01:10:20;;;;;;;51.60;19.77;;;;;;;5.45;63.53;99710.69;5159548;28;20749;-74
2022/12/01 01:13:11;;;;;;;44.53;18.73;;;;;;;5.24;64.58;99714.63;5169534;28;20053;-74
2022/12/01 01:16:07;;;;;;;47.00;18.55;;;;;;;5.40;64.33;99697.84;5169689;28;20053;-74
2022/12/01 01:18:57;;;;;;;48.70;18.60;;;;;;;5.35;63.62;99720.06;5160093;28;20678;-74
2022/12/01 01:21:48;;;;;;;42.72;17.88;;;;;;;5.56;64.02;99713.53;5150477;28;20500;-74
2022/12/01 01:24:38;;;;;;;46.00;18.08;;;;;;;4.82;65.00;99717.06;5175649;28;20061;-75
2022/12/01 01:27:27;;;;;;;49.65;19.23;;;;;;;5.38;63.58;99722.53;5153093;28;20564;-74
2022/12/01 01:30:18;;;;;;;44.70;17.02;;;;;;;5.47;63.51;99711.44;5155568;28;20135;-74
2022/12/01 01:33:09;;;;;;;42.22;18.10;;;;;;;5.59;62.87;99705.41;5149850;28;20526;-74
2022/12/01 01:36:00;;;;;;;40.25;16.90;;;;;;;5.56;63.25;99718.78;5174466;28;20425;-74
2022/12/01 01:38:52;;;;;;;41.58;17.65;;;;;;;5.27;62.96;99711.81;5151815;28;20042;-74
2022/12/01 01:41:42;;;;;;;39.97;16.85;;;;;;;5.38;62.62;99722.53;5165052;28;20694;-74
2022/12/01 01:44:53;;;;;;;40.92;16.52;;;;;;;5.61;61.81;99716.69;5184996;28;20052;-75
2022/12/01 01:47:43;;;;;;;42.53;17.50;;;;;;;5.62;61.86;99710.47;5172930;28;20042;-74
2022/12/01 01:50:34;;;;;;;38.97;16.52;;;;;;;5.47;62.61;99713.25;5184176;28;20050;-74
2022/12/01 01:53:24;;;;;;;39.15;17.25;;;;;;;5.70;62.69;99709.19;5183299;28;20076;-74
2022/12/01 01:56:15;;;;;;;45.17;18.10;;;;;;;5.67;63.54;99722.53;5168202;28;20445;-75
2022/12/01 01:59:05;;;;;;;44.33;16.98;;;;;;;5.62;63.84;99710.47;5165729;28;20482;-74
2022/12/01 02:02:00;;;;;;;41.58;17.15;;;;;;;5.82;63.74;99718.94;5174621;28;20540;-75
2022/12/01 02:04:58;;;;;;;42.08;17.00;;;;;;;5.83;63.69;99725.91;5169719;28;20052;-74
2022/12/01 02:07:50;;;;;;;40.72;15.50;;;;;;;5.79;64.04;99724.38;5169270;28;20116;-75
2022/12/01 02:11:07;;;;;;;38.80;15.77;;;;;;;5.79;63.91;99719.13;5168925;28;20050;-75
2022/12/01 02:14:56;;;;;;;40.10;15.50;;;;;;;5.77;62.53;99718.38;5184340;28;20188;-75
2022/12/01 02:18:02;;;;;;;36.90;15.07;;;;;;;5.80;62.57;99703.25;5140826;28;20050;-74
2022/12/01 02:21:10;;;;;;;37.13;15.80;;;;;;;5.68;62.13;99721.59;5164024;28;20062;-75
2022/12/01 02:24:19;;;;;;;32.17;14.65;;;;;;;5.70;62.30;99717.94;5183723;28;20202;-74
2022/12/01 02:27:33;;;;;;;34.88;15.55;;;;;;;5.79;62.10;99716.50;5184022;28;20054;-73
2022/12/01 02:30:43;;;;;;;38.47;15.50;;;;;;;5.69;61.27;99707.47;5181291;28;20280;-75
2022/12/01 02:33:40;;;;;;;38.88;15.18;;;;;;;5.66;62.87;99708.50;5178440;28;20098;-75
2022/12/01 02:36:41;;;;;;;33.55;14.02;;;;;;;5.68;62.11;99706.63;5178785;28;20050;-74
2022/12/01 02:39:37;;;;;;;33.28;14.70;;;;;;;5.55;61.43;99709.19;5162597;28;20054;-74
2022/12/01 02:42:52;;;;;;;35.25;14.35;;;;;;;5.37;61.45;99681.41;5179396;28;20046;-77
2022/12/01 02:45:49;;;;;;;36.95;15.23;;;;;;;5.55;61.32;99695.19;5159740;28;20195;-74
2022/12/01 02:48:42;;;;;;;36.40;14.73;;;;;;;5.50;60.73;99705.16;5178988;28;20049;-74
2022/12/01 02:51:35;;;;;;;36.13;15.25;;;;;;;5.71;60.80;99705.59;5172644;28;20480;-74
2022/12/01 02:54:29;;;;;;;38.63;15.50;;;;;;;5.50;61.57;99695.47;5159897;28;20061;-74
2022/12/01 02:57:19;;;;;;;32.70;14.10;;;;;;;5.61;60.98;99702.69;5173005;28;20052;-75
2022/12/01 03:00:12;;;;;;;35.97;15.18;;;;;;;5.36;60.26;99705.97;5177922;28;20046;-74
2022/12/01 03:03:42;;;;;;;35.08;14.93;;;;;;;5.22;60.68;99711.25;5167362;28;20057;-74
2022/12/01 03:06:56;;;;;;;36.83;15.07;;;;;;;5.41;62.10;99704.78;5164095;28;20534;-74
2022/12/01 03:10:11;;;;;;;37.85;14.90;;;;;;;5.47;61.88;99700.09;5178585;28;20529;-74
2022/12/01 03:13:38;;;;;;;40.17;16.42;;;;;;;5.50;62.67;99700.75;5164974;28;20111;-74
2022/12/01 03:16:35;;;;;;;38.35;14.90;;;;;;;5.44;62.27;99702.91;5163631;28;20057;-75
2022/12/01 03:19:36;;;;;;;37.33;15.90;;;;;;;5.35;62.42;99684.09;5169243;28;20050;-74
2022/12/01 03:22:35;;;;;;;35.15;15.20;;;;;;;5.47;62.42;99702.72;5176243;28;20534;-75
2022/12/01 03:25:27;;;;;;;34.10;15.20;;;;;;;5.46;62.50;99690.47;5162556;28;20057;-74
2022/12/01 03:28:27;;;;;;;35.30;15.18;;;;;;;5.31;62.17;99692.28;5155635;28;20480;-74
2022/12/01 03:31:22;;;;;;;41.15;16.35;;;;;;;5.15;62.62;99685.31;5211507;23;20048;-82
2022/12/01 03:34:23;;;;;;;45.78;17.05;;;;;;;5.37;62.84;99679.59;5192001;28;20053;-83
2022/12/01 03:37:20;;;;;;;41.35;16.73;;;;;;;5.34;63.45;99687.69;5193122;28;20117;-83
2022/12/01 03:40:16;;;;;;;39.25;16.02;;;;;;;5.55;61.87;99684.66;5202537;28;20491;-82
2022/12/01 03:43:10;;;;;;;42.00;16.38;;;;;;;5.31;62.49;99664.19;5194488;28;20136;-83
2022/12/01 03:46:06;;;;;;;39.72;16.75;;;;;;;5.47;63.19;99702.72;5170104;28;20065;-83
2022/12/01 03:48:56;;;;;;;38.63;16.25;;;;;;;5.34;62.92;99692.09;5184002;28;20053;-83
2022/12/01 03:51:59;;;;;;;41.38;16.05;;;;;;;5.44;63.49;99698.47;5160341;28;20081;-83
2022/12/01 03:55:00;;;;;;;38.85;16.13;;;;;;;5.44;63.56;99709.00;5176830;28;20431;-82
2022/12/01 03:58:08;;;;;;;42.20;16.63;;;;;;;5.44;63.46;99714.25;5156526;28;20061;-83
2022/12/01 04:01:02;;;;;;;41.05;16.30;;;;;;;5.25;63.63;99682.13;5205441;28;20159;-82
2022/12/01 04:03:52;;;;;;;44.25;16.88;;;;;;;5.40;63.30;99697.00;5190834;28;20072;-83
2022/12/01 04:06:46;;;;;;;45.38;17.42;;;;;;;5.39;63.96;99695.28;5190274;28;20064;-83
2022/12/01 04:09:36;;;;;;;;;;;;;;;5.44;64.02;99701.13;5190583;28;20049;-83
2022/12/01 04:12:29;;;;;;;44.67;16.27;;;;;;;5.39;64.13;99697.91;5176333;28;20004;-83
2022/12/01 04:15:19;;;;;;;39.58;16.83;;;;;;;5.35;63.85;99699.03;5190034;28;20164;-82
2022/12/01 04:18:09;;;;;;;46.67;18.77;;;;;;;5.39;63.87;99696.13;5176022;28;20190;-82
2022/12/01 04:20:59;;;;;;;49.40;19.00;;;;;;;5.46;64.08;99695.75;5175476;28;20107;-82
2022/12/01 04:24:01;;;;;;;48.72;18.48;;;;;;;5.36;64.20;99679.69;5189973;28;20101;-83
2022/12/01 04:26:52;;;;;;;46.13;17.98;;;;;;;5.35;63.53;99683.25;5195121;28;20073;-83
2022/12/01 04:29:42;;;;;;;45.45;18.20;;;;;;;5.34;63.71;99671.06;5194438;28;20052;-82
2022/12/01 04:32:39;;;;;;;45.08;18.33;;;;;;;5.27;62.66;99680.28;5187249;28;20050;-82
2022/12/01 04:35:29;;;;;;;48.97;18.55;;;;;;;5.38;63.00;99690.97;5187352;28;20057;-83
2022/12/01 04:38:19;;;;;;;49.38;19.55;;;;;;;5.23;62.98;99689.25;5176060;28;20628;-83
2022/12/01 04:41:11;;;;;;;45.22;18.35;;;;;;;5.07;63.20;99690.19;5200125;28;20191;-82
2022/12/01 04:44:01;;;;;;;44.13;17.50;;;;;;;5.26;63.51;99686.44;5192073;28;20065;-82
2022/12/01 04:46:51;;;;;;;49.08;18.33;;;;;;;5.24;64.06;99673.41;5176784;28;20690;-83
2022/12/01 04:49:42;;;;;;;48.03;19.48;;;;;;;5.21;63.84;99691.16;5189730;28;20068;-82
2022/12/01 04:52:36;;;;;;;47.47;18.52;;;;;;;5.24;63.05;99690.97;5191936;28;20078;-83
2022/12/01 04:55:26;;;;;;;50.67;19.95;;;;;;;5.31;62.85;99705.44;5185261;28;20652;-83
2022/12/01 04:58:16;;;;;;;48.20;19.85;;;;;;;5.27;63.25;99698.69;5193126;28;20131;-83
2022/12/01 05:01:09;;;;;;;46.45;18.63;;;;;;;5.36;63.44;99700.72;5203253;28;20050;-83
2022/12/01 05:04:00;;;;;;;47.95;19.55;;;;;;;5.11;63.66;99662.78;5194836;28;20136;-83
2022/12/01 05:06:53;;;;;;;45.65;20.23;;;;;;;5.16;62.80;99689.63;5195154;28;20057;-83
2022/12/01 05:09:43;;;;;;;43.30;17.83;;;;;;;5.25;62.96;99700.53;5187710;28;20139;-83
2022/12/01 05:12:33;;;;;;;45.78;18.88;;;;;;;5.33;63.52;99708.78;5192582;28;20209;-83
2022/12/01 05:15:23;;;;;;;44.83;18.80;;;;;;;5.35;63.12;99696.41;5193362;28;20065;-83
2022/12/01 05:18:13;;;;;;;53.65;20.15;;;;;;;5.35;63.65;99705.13;5207754;28;20569;-83
2022/12/01 05:21:06;;;;;;;48.15;18.63;;;;;;;5.34;63.02;99702.63;5208132;28;20138;-82
2022/12/01 05:23:56;;;;;;;48.15;18.80;;;;;;;5.31;63.39;99703.66;5165699;28;20056;-83
2022/12/01 05:26:46;;;;;;;45.88;18.77;;;;;;;5.26;64.38;99696.97;5192584;28;20482;-82
2022/12/01 05:29:37;;;;;;;48.20;19.30;;;;;;;5.19;63.26;99689.44;5207508;28;20064;-83
2022/12/01 05:32:27;;;;;;;52.50;19.35;;;;;;;5.23;64.27;99695.38;5170991;28;20475;-82
2022/12/01 05:35:17;;;;;;;46.22;19.00;;;;;;;5.19;64.82;99678.09;5167975;28;20420;-83
2022/12/01 05:38:08;;;;;;;49.10;20.02;;;;;;;5.31;64.74;99713.31;5203606;28;20060;-82
2022/12/01 05:40:58;;;;;;;48.47;20.20;;;;;;;5.49;63.88;99717.44;5157792;28;20121;-83
2022/12/01 05:43:48;;;;;;;44.60;18.77;;;;;;;5.35;63.31;99699.88;5187974;28;20187;-82
2022/12/01 05:46:38;;;;;;;47.75;19.45;;;;;;;5.36;64.09;99703.34;5176958;28;20466;-84
2022/12/01 05:49:28;;;;;;;49.80;19.73;;;;;;;5.44;63.78;99703.75;5206067;28;20037;-84
2022/12/01 05:52:18;;;;;;;47.28;18.85;;;;;;;5.37;64.04;99694.53;5177493;28;20071;-82
2022/12/01 05:55:08;;;;;;;46.30;19.40;;;;;;;5.41;63.76;99706.56;5206806;28;20054;-81
2022/12/01 05:57:58;;;;;;;52.88;19.75;;;;;;;5.42;64.09;99702.97;5178621;28;20093;-82
2022/12/01 06:00:48;;;;;;;47.25;20.63;;;;;;;5.54;62.79;99704.88;5191901;28;20041;-82
2022/12/01 06:03:38;;;;;;;42.67;18.23;;;;;;;5.33;63.73;99717.56;5176568;28;20103;-80
2022/12/01 06:06:29;;;;;;;47.88;20.02;;;;;;;5.29;63.08;99710.75;5193124;28;20530;-81
2022/12/01 06:09:19;;;;;;;44.15;17.95;;;;;;;5.34;63.50;99692.09;5168174;28;20088;-81
2022/12/01 06:12:09;;;;;;;46.65;18.90;;;;;;;5.30;63.56;99711.63;5191330;28;20194;-82
2022/12/01 06:15:00;;;;;;;40.80;18.35;;;;;;;5.28;63.22;99703.81;5189530;28;20057;-81
2022/12/01 06:17:50;;;;;;;44.55;19.10;;;;;;;5.34;63.61;99721.03;5192953;28;20053;-81
2022/12/01 06:20:40;;;;;;;45.05;19.00;;;;;;;5.31;63.58;99719.41;5187943;28;20153;-81
2022/12/01 06:23:31;;;;;;;48.55;18.77;;;;;;;5.18;63.58;99713.22;5172173;28;20056;-82
2022/12/01 06:26:21;;;;;;;46.28;18.33;;;;;;;5.03;64.05;99709.69;5188340;28;20057;-82
2022/12/01 06:29:11;;;;;;;44.35;17.58;;;;;;;5.26;64.08;99731.16;5207077;28;20050;-82
2022/12/01 06:32:02;;;;;;;44.10;17.35;;;;;;;5.36;63.98;99722.63;5184562;28;20195;-82
2022/12/01 06:34:52;;;;;;;48.05;18.85;;;;;;;5.35;63.79;99718.28;5190752;28;21167;-82
2022/12/01 06:37:42;;;;;;;43.20;19.15;;;;;;;5.26;62.98;99721.47;5207295;28;20075;-81
2022/12/01 06:40:32;;;;;;;47.85;19.02;;;;;;;5.35;63.54;99720.06;5201261;28;20148;-81
2022/12/01 06:43:22;;;;;;;42.83;18.27;;;;;;;5.30;64.38;99728.25;5198121;28;20199;-81
2022/12/01 06:46:13;;;;;;;44.90;17.17;;;;;;;5.32;64.58;99734.25;5191374;28;20052;-82
2022/12/01 06:49:04;;;;;;;47.03;18.92;;;;;;;5.32;63.23;99738.66;5190802;28;20052;-82
2022/12/01 06:51:55;;;;;;;45.28;18.98;;;;;;;5.38;63.48;99746.19;5191860;28;20057;-82
2022/12/01 06:54:45;;;;;;;45.75;18.17;;;;;;;5.34;63.70;99732.38;5180094;28;20050;-81
2022/12/01 06:57:35;;;;;;;45.50;17.92;;;;;;;4.73;64.26;99722.84;5174213;28;20057;-82
2022/12/01 07:00:26;;;;;;;45.13;18.25;;;;;;;4.33;66.30;99740.88;5210546;28;20045;-82
2022/12/01 07:03:16;;;;;;;46.30;18.17;;;;;;;4.58;64.78;99719.34;5179238;28;20549;-81
2022/12/01 07:06:06;;;;;;;43.40;17.65;;;;;;;5.14;64.31;99730.94;5159496;28;20053;-83
2022/12/01 07:08:57;;;;;;;45.83;17.65;;;;;;;5.33;63.79;99751.75;5158875;28;20053;-81
2022/12/01 07:11:47;;;;;;;41.75;16.35;;;;;;;5.23;63.51;99749.72;5173347;28;20575;-81
2022/12/01 07:14:37;;;;;;;42.25;17.52;;;;;;;5.22;63.60;99719.97;5167360;28;20068;-81
2022/12/01 07:17:28;;;;;;;40.25;17.48;;;;;;;5.46;63.33;99748.34;5165300;28;20067;-81
2022/12/01 07:20:19;;;;;;;43.63;18.00;;;;;;;5.36;63.92;99743.66;5203045;28;20053;-81
2022/12/01 07:23:09;;;;;;;42.58;17.52;;;;;;;5.32;62.89;99744.78;5196770;28;20976;-82
2022/12/01 07:26:08;;;;;;;45.25;17.48;;;;;;;5.44;63.43;99751.09;5178320;28;20061;-81
2022/12/01 07:28:59;;;;;;;47.75;17.88;;;;;;;5.36;63.99;99756.81;5186252;28;20431;-80
2022/12/01 07:31:49;;;;;;;42.50;16.95;;;;;;;4.97;64.15;99746.00;5165294;28;20049;-82
2022/12/01 07:34:39;;;;;;;44.30;18.50;;;;;;;5.24;63.25;99748.81;5181474;28;20100;-82
2022/12/01 07:37:29;;;;;;;42.60;17.60;;;;;;;5.31;64.45;99750.13;5165418;28;20057;-82
2022/12/01 07:40:19;;;;;;;45.47;17.27;;;;;;;5.28;64.40;99739.78;5165712;28;20064;-82
2022/12/01 07:43:09;;;;;;;44.65;18.40;;;;;;;5.33;64.20;99742.97;5174311;28;20061;-81
2022/12/01 07:46:13;;;;;;;40.03;16.85;;;;;;;5.40;64.56;99757.47;5175794;28;20125;-82
2022/12/01 07:49:13;;;;;;;41.33;17.35;;;;;;;5.41;64.02;99749.47;5182021;28;20071;-82
2022/12/01 07:52:04;;;;;;;43.80;16.88;;;;;;;5.47;62.96;99763.22;5185317;28;20556;-82
2022/12/01 07:54:54;;;;;;;43.65;17.58;;;;;;;5.49;63.99;99764.78;5176108;28;20081;-82
2022/12/01 07:57:44;;;;;;;42.63;17.50;;;;;;;5.50;63.69;99753.34;5182189;28;20061;-83
2022/12/01 08:00:33;;;;;;;43.15;17.17;;;;;;;5.45;62.76;99746.66;5195467;28;20605;-83
2022/12/01 08:03:24;;;;;;;43.97;17.25;;;;;;;5.52;64.03;99771.66;5175809;28;20310;-82
2022/12/01 08:06:15;;;;;;;43.92;16.92;;;;;;;5.42;63.24;99766.94;5170186;28;20115;-81
2022/12/01 08:09:05;;;;;;;40.03;16.95;;;;;;;5.19;63.21;99739.38;5178525;28;20080;-81
2022/12/01 08:11:55;;;;;;;38.80;16.90;;;;;;;5.49;63.39;99753.44;5175030;28;20077;-81
2022/12/01 08:14:45;;;;;;;40.95;17.42;;;;;;;5.55;63.67;99758.31;5175974;28;20475;-82
2022/12/01 08:17:35;;;;;;;42.17;17.52;;;;;;;5.48;62.92;99771.00;5175583;28;20069;-81
2022/12/01 08:20:25;;;;;;;38.35;17.25;;;;;;;5.38;63.08;99764.59;5183003;28;20112;-82
2022/12/01 08:23:15;;;;;;;44.50;17.90;;;;;;;5.53;63.20;99782.09;5174505;28;20061;-82
2022/12/01 08:26:11;;;;;;;43.08;17.00;;;;;;;5.42;63.26;99758.22;5170853;28;20128;-81
2022/12/01 08:29:01;;;;;;;44.25;17.33;;;;;;;5.45;63.71;99763.28;5179012;28;20467;-82
2022/12/01 08:31:52;;;;;;;44.03;17.83;;;;;;;5.54;63.07;99770.63;5160246;28;20053;-82
2022/12/01 08:34:45;;;;;;;45.70;17.58;;;;;;;5.57;63.55;99780.97;5167745;28;20386;-82
2022/12/01 08:37:42;;;;;;;40.13;17.05;;;;;;;5.68;63.83;99772.41;5176092;28;20055;-81
2022/12/01 08:40:32;;;;;;;39.88;16.60;;;;;;;5.24;63.68;99735.66;5187754;28;20045;-82
2022/12/01 08:43:22;;;;;;;47.70;18.25;;;;;;;5.67;63.95;99794.41;5167901;28;20061;-81
2022/12/01 08:46:34;;;;;;;43.17;17.73;;;;;;;5.68;63.22;99776.84;5179303;28;20076;-82
2022/12/01 08:49:25;;;;;;;44.78;18.45;;;;;;;5.51;62.92;99785.75;5159843;28;20076;-81
2022/12/01 08:52:15;;;;;;;44.20;17.90;;;;;;;5.66;63.17;99779.53;5168896;28;20108;-81
2022/12/01 08:55:06;;;;;;;42.40;17.00;;;;;;;5.60;63.59;99779.94;5177369;28;20723;-82
2022/12/01 08:57:57;;;;;;;39.85;17.10;;;;;;;5.64;62.79;99787.53;5182639;28;20712;-82
2022/12/01 09:00:47;;;;;;;43.17;15.77;;;;;;;5.55;63.10;99788.09;5177251;28;20065;-83
2022/12/01 09:03:38;;;;;;;43.85;18.05;;;;;;;5.15;64.85;99797.50;5169861;28;20060;-83
2022/12/01 09:06:28;;;;;;;41.63;17.83;;;;;;;5.01;64.64;99776.47;5157664;28;20180;-82
2022/12/01 09:09:27;;;;;;;38.45;16.42;;;;;;;4.95;64.54;99789.00;5178837;28;20157;-82
2022/12/01 09:12:17;;;;;;;42.90;17.42;;;;;;;4.58;65.83;99774.50;5174906;28;20061;-82
2022/12/01 09:15:08;;;;;;;41.03;17.02;;;;;;;5.22;64.40;99761.19;5166230;28;20056;-81
2022/12/01 09:17:59;;;;;;;43.55;17.27;;;;;;;5.56;64.31;99787.19;5182688;28;20132;-81
2022/12/01 09:20:49;;;;;;;43.38;17.70;;;;;;;5.82;63.23;99797.88;5167898;28;20042;-82
2022/12/01 09:23:40;;;;;;;42.38;16.95;;;;;;;5.34;63.90;99792.88;5179652;28;20053;-82
2022/12/01 09:26:31;;;;;;;43.33;17.05;;;;;;;5.55;63.53;99782.84;5185530;28;20049;-82
2022/12/01 09:29:21;;;;;;;42.25;17.27;;;;;;;5.61;63.74;99785.09;5166071;28;20513;-82
2022/12/01 09:32:12;;;;;;;40.35;16.95;;;;;;;5.47;63.47;99779.00;5170968;28;20076;-81
2022/12/01 09:35:02;;;;;;;44.42;17.02;;;;;;;5.07;63.51;99782.19;5177228;28;20076;-81
2022/12/01 09:37:52;;;;;;;43.25;17.48;;;;;;;5.47;63.60;99793.00;5175525;28;20224;-82
2022/12/01 09:40:43;;;;;;;42.97;17.48;;;;;;;5.64;63.09;99782.28;5183116;28;20142;-81
2022/12/01 09:43:40;;;;;;;42.00;18.15;;;;;;;5.28;64.11;99793.22;5169697;28;20175;-82
2022/12/01 09:46:40;;;;;;;42.63;17.70;;;;;;;5.24;65.19;99780.38;5181111;28;20064;-82
2022/12/01 09:49:43;;;;;;;39.72;16.17;;;;;;;5.67;63.63;99783.06;5174487;28;20516;-82
2022/12/01 09:52:44;;;;;;;39.38;17.08;;;;;;;4.80;66.29;99774.13;5143407;28;20049;-82
2022/12/01 09:55:35;;;;;;;46.15;17.27;;;;;;;5.46;64.00;99779.91;5157088;28;20062;-81
2022/12/01 09:58:29;;;;;;;41.35;17.73;;;;;;;5.45;63.89;99773.81;5158782;28;20644;-82
2022/12/01 10:01:29;;;;;;;43.25;17.80;;;;;;;5.68;63.39;99779.47;5158222;28;20061;-81
2022/12/01 10:04:43;;;;;;;42.00;16.92;;;;;;;5.70;63.62;99767.91;5182317;28;20071;-81
2022/12/01 10:07:43;;;;;;;43.10;17.63;;;;;;;5.92;63.31;99764.78;5168160;28;20530;-80
2022/12/01 10:10:42;;;;;;;42.53;16.58;;;;;;;6.01;63.15;99769.53;5156456;28;20124;-81
2022/12/01 10:13:33;;;;;;;43.63;17.42;;;;;;;6.17;61.17;99760.66;5166908;28;20061;-81
2022/12/01 10:16:34;;;;;;;42.17;17.45;;;;;;;5.84;62.78;99772.31;5184402;28;20085;-81
2022/12/01 10:19:33;;;;;;;39.25;16.65;;;;;;;6.08;64.13;99760.28;5173931;28;20058;-81
2022/12/01 10:23:09;;;;;;;38.90;17.00;;;;;;;5.25;64.43;99755.75;5170132;28;20061;-80
2022/12/01 10:26:12;;;;;;;40.20;17.88;;;;;;;5.76;64.85;99756.16;5167947;28;20057;-81
2022/12/01 10:29:11;;;;;;;40.03;15.93;;;;;;;5.61;64.45;99748.28;5160782;28;20708;-81
2022/12/01 10:32:11;;;;;;;41.95;17.48;;;;;;;5.62;64.30;99743.84;5171028;28;20068;-81
2022/12/01 10:35:01;;;;;;;39.45;16.60;;;;;;;5.67;63.58;99748.84;5182803;28;20053;-81
2022/12/01 10:37:58;;;;;;;48.50;17.35;;;;;;;5.10;65.34;99725.94;5173555;28;20065;-81
2022/12/01 10:40:49;;;;;;;42.38;17.13;;;;;;;5.51;65.04;99741.03;5162115;28;20076;-82
2022/12/01 10:43:44;;;;;;;44.58;15.90;;;;;;;5.76;64.24;99735.09;5177869;28;20135;-82
2022/12/01 10:46:41;;;;;;;41.42;16.48;;;;;;;6.08;62.48;99747.13;5159981;28;20515;-82
2022/12/01 10:49:39;;;;;;;39.20;16.20;;;;;;;5.49;63.95;99735.84;5185638;28;20941;-81
2022/12/01 10:52:37;;;;;;;41.42;16.77;;;;;;;5.58;64.15;99743.19;5167759;28;20539;-83
2022/12/01 10:55:32;;;;;;;37.90;16.05;;;;;;;5.75;62.44;99726.38;5178761;28;20053;-82
2022/12/01 10:58:22;;;;;;;37.35;15.98;;;;;;;6.00;63.31;99728.34;5177781;28;20435;-82
2022/12/01 11:01:25;;;;;;;42.15;17.15;;;;;;;5.79;62.99;99727.00;5174930;28;20056;-82
2022/12/01 11:04:21;;;;;;;40.03;16.77;;;;;;;6.38;62.06;99724.19;5215066;28;20077;-81
2022/12/01 11:07:29;;;;;;;42.10;16.70;;;;;;;5.95;62.46;99703.25;5174486;28;20072;-83
2022/12/01 11:10:24;;;;;;;39.78;16.48;;;;;;;6.31;62.33;99723.75;5209801;28;20049;-83
2022/12/01 11:13:29;;;;;;;39.72;16.38;;;;;;;5.93;63.19;99727.06;5195870;28;20422;-83
2022/12/01 11:16:39;;;;;;;38.85;16.33;;;;;;;5.54;65.18;99723.28;5179014;28;20064;-83
2022/12/01 11:19:33;;;;;;;39.85;17.00;;;;;;;5.85;63.69;99721.38;5170569;28;20501;-83
2022/12/01 11:22:25;;;;;;;44.88;16.48;;;;;;;5.63;64.41;99716.63;5188968;28;20124;-83
2022/12/01 11:25:20;;;;;;;41.17;16.65;;;;;;;6.09;63.12;99706.72;5181027;28;20049;-81
2022/12/01 11:28:19;;;;;;;39.05;15.02;;;;;;;6.08;63.45;99705.00;5166183;28;20060;-82
2022/12/01 11:31:10;;;;;;;38.25;16.38;;;;;;;5.99;62.78;99689.78;5176222;28;20048;-81
2022/12/01 11:34:01;;;;;;;38.65;15.75;;;;;;;5.97;63.26;99694.31;5153954;28;20069;-82
2022/12/01 11:36:57;;;;;;;38.40;16.77;;;;;;;6.31;63.55;99694.78;5150597;28;20072;-82
2022/12/01 11:39:49;;;;;;;37.75;16.40;;;;;;;5.79;63.38;99687.53;5160130;28;20051;-82
2022/12/01 11:42:40;;;;;;;39.60;15.40;;;;;;;5.93;62.87;99690.19;5167266;28;20065;-81
2022/12/01 11:45:39;;;;;;;39.42;15.45;;;;;;;6.06;63.47;99695.50;5175000;28;21387;-81
2022/12/01 11:48:33;;;;;;;36.28;15.95;;;;;;;5.80;62.65;99676.09;5167658;28;20456;-81
2022/12/01 11:51:36;;;;;;;35.90;15.82;;;;;;;5.89;63.84;99667.59;5164188;28;20064;-81
2022/12/01 11:54:27;;;;;;;22.30;10.67;;;;;;;6.37;63.10;99668.06;5169744;28;20053;-82
2022/12/01 11:57:17;;;;;;;37.72;15.20;;;;;;;6.32;63.09;99683.28;5165437;28;20321;-81
2022/12/01 12:00:26;;;;;;;37.25;15.25;;;;;;;5.41;64.11;99696.03;5160039;28;20064;-83
2022/12/01 12:03:27;;;;;;;32.40;14.77;;;;;;;5.89;63.46;99686.03;5180832;28;20166;-82
2022/12/01 12:06:31;;;;;;;33.55;14.98;;;;;;;6.37;62.81;99672.47;5170051;28;20439;-82
2022/12/01 12:09:48;;;;;;;44.95;16.95;;;;;;;6.78;62.39;99683.72;5173182;28;20068;-82
2022/12/01 12:13:03;;;;;;;38.72;15.63;;;;;;;6.28;62.91;99684.44;5166529;28;20054;-83
2022/12/01 12:16:18;;;;;;;37.05;14.65;;;;;;;6.69;63.11;99683.50;5196988;28;20049;-83
2022/12/01 12:19:34;;;;;;;36.90;15.30;;;;;;;6.31;63.28;99682.44;5193239;28;20054;-83
2022/12/01 12:22:44;;;;;;;;;;;;;;;6.71;61.43;99678.97;5176144;28;20141;-83
2022/12/01 12:26:14;;;;;;;38.38;14.82;;;;;;;6.11;63.83;99669.75;5195267;28;19936;-83
2022/12/01 12:29:18;;;;;;;31.63;14.13;;;;;;;6.19;63.06;99675.38;5189023;28;20081;-82
2022/12/01 12:32:36;;;;;;;37.50;15.80;;;;;;;6.17;63.55;99647.44;5181849;28;20721;-83
2022/12/01 12:35:45;;;;;;;33.95;14.90;;;;;;;6.57;62.19;99664.09;5181420;28;20066;-83
2022/12/01 12:39:01;;;;;;;32.50;14.15;;;;;;;6.60;62.81;99656.00;5198177;28;20472;-82
2022/12/01 12:41:54;;;;;;;37.50;16.27;;;;;;;6.51;63.97;99648.69;5183364;28;20137;-82
2022/12/01 12:44:53;;;;;;;31.23;13.88;;;;;;;6.15;62.83;99641.41;5173484;28;20454;-83
2022/12/01 12:48:05;;;;;;;36.28;14.85;;;;;;;6.23;63.80;99650.53;5170524;28;21655;-82
2022/12/01 12:51:08;;;;;;;29.65;14.35;;;;;;;6.92;62.08;99648.56;5161131;28;20053;-81
2022/12/01 12:54:24;;;;;;;32.28;14.55;;;;;;;6.15;62.78;99620.34;5156509;28;20088;-81
2022/12/01 12:57:28;;;;;;;32.58;15.05;;;;;;;6.90;62.13;99646.97;5174174;28;20053;-81
2022/12/01 13:00:23;;;;;;;35.83;15.20;;;;;;;6.45;62.96;99652.56;5155809;28;20076;-81
2022/12/01 13:03:51;;;;;;;34.40;14.82;;;;;;;6.97;61.86;99653.50;5156878;28;20062;-81
2022/12/01 13:06:51;;;;;;;33.22;15.32;;;;;;;6.71;62.07;99634.19;5180587;28;20289;-83
2022/12/01 13:09:47;;;;;;;38.15;15.35;;;;;;;6.48;64.10;99644.47;5161131;28;20066;-82
2022/12/01 13:12:44;;;;;;;40.90;16.42;;;;;;;6.04;63.30;99614.00;5158858;28;20253;-83
2022/12/01 13:15:37;;;;;;;33.20;14.45;;;;;;;6.07;62.47;99563.78;5174475;28;20315;-83
2022/12/01 13:18:42;;;;;;;37.88;15.32;;;;;;;6.75;61.68;99652.31;5199139;28;20802;-83
2022/12/01 13:21:40;;;;;;;37.75;14.43;;;;;;;6.24;63.86;99654.84;5188537;28;20073;-82
2022/12/01 13:24:31;;;;;;;37.92;15.57;;;;;;;6.48;64.11;99643.63;5193655;28;20061;-82
2022/12/01 13:27:24;;;;;;;32.17;14.43;;;;;;;6.94;63.01;99636.09;5177670;28;20069;-83
2022/12/01 13:30:20;;;;;;;42.92;15.95;;;;;;;6.69;63.18;99636.06;5178195;28;20096;-82
2022/12/01 13:33:14;;;;;;;32.53;15.32;;;;;;;6.29;63.57;99607.13;5177841;28;20084;-81
2022/12/01 13:36:10;;;;;;;33.28;15.38;;;;;;;6.43;63.76;99651.00;5172262;28;20422;-83
2022/12/01 13:39:24;;;;;;;30.67;14.43;;;;;;;6.24;63.12;99646.94;5201267;28;20060;-82
2022/12/01 13:42:19;;;;;;;36.55;14.98;;;;;;;6.15;65.37;99644.06;5196390;28;20050;-82